sensor_id;sensor_type;location;lat;lon;timestamp;pressure;altitude;pressure_sealevel;temperature;humidity
20624;BME280;10471;42.736;23.346;2023-11-21T00:00:02;95388.16;;;2.47;100.00
20624;BME280;10471;42.736;23.346;2023-11-21T00:02:29;95384.84;;;2.52;100.00
20624;BME280;10471;42.736;23.346;2023-11-21T00:04:54;95389.16;;;2.58;100.00
20624;BME280;10471;42.736;23.346;2023-11-21T00:07:20;95398.31;;;2.60;100.00
20624;BME280;10471;42.736;23.346;2023-11-21T00:09:46;95396.53;;;2.60;100.00
20624;BME280;10471;42.736;23.346;2023-11-21T00:12:12;95395.53;;;2.61;100.00
20624;BME280;10471;42.736;23.346;2023-11-21T00:14:39;95399.69;;;2.62;100.00
20624;BME280;10471;42.736;23.346;2023-11-21T00:20:51;95402.63;;;2.66;100.00
20624;BME280;10471;42.736;23.346;2023-11-21T00:23:17;95401.84;;;2.65;100.00
20624;BME280;10471;42.736;23.346;2023-11-21T00:25:43;95399.78;;;2.67;100.00
20624;BME280;10471;42.736;23.346;2023-11-21T00:28:09;95396.19;;;2.68;100.00
20624;BME280;10471;42.736;23.346;2023-11-21T00:30:35;95389.41;;;2.67;100.00
20624;BME280;10471;42.736;23.346;2023-11-21T00:33:00;95384.78;;;2.69;100.00
20624;BME280;10471;42.736;23.346;2023-11-21T00:35:25;95379.34;;;2.71;100.00
20624;BME280;10471;42.736;23.346;2023-11-21T00:37:51;95393.69;;;2.73;100.00
20624;BME280;10471;42.736;23.346;2023-11-21T00:40:17;95393.16;;;2.71;100.00
20624;BME280;10471;42.736;23.346;2023-11-21T00:42:46;95390.09;;;2.74;100.00
20624;BME280;10471;42.736;23.346;2023-11-21T00:45:12;95387.72;;;2.73;100.00
20624;BME280;10471;42.736;23.346;2023-11-21T00:47:37;95391.56;;;2.70;100.00
20624;BME280;10471;42.736;23.346;2023-11-21T00:50:04;95386.91;;;2.72;100.00
20624;BME280;10471;42.736;23.346;2023-11-21T00:52:31;95388.50;;;2.73;100.00
20624;BME280;10471;42.736;23.346;2023-11-21T00:54:57;95392.09;;;2.72;100.00
20624;BME280;10471;42.736;23.346;2023-11-21T00:57:26;95392.91;;;2.73;100.00
20624;BME280;10471;42.736;23.346;2023-11-21T00:59:51;95385.66;;;2.75;100.00
20624;BME280;10471;42.736;23.346;2023-11-21T01:02:17;95384.88;;;2.74;100.00
20624;BME280;10471;42.736;23.346;2023-11-21T01:04:42;95384.78;;;2.69;100.00
20624;BME280;10471;42.736;23.346;2023-11-21T01:07:08;95381.47;;;2.62;100.00
20624;BME280;10471;42.736;23.346;2023-11-21T01:09:34;95373.38;;;2.59;100.00
20624;BME280;10471;42.736;23.346;2023-11-21T01:11:59;95376.97;;;2.58;100.00
20624;BME280;10471;42.736;23.346;2023-11-21T01:14:25;95387.03;;;2.55;100.00
20624;BME280;10471;42.736;23.346;2023-11-21T01:16:52;95379.66;;;2.52;100.00
20624;BME280;10471;42.736;23.346;2023-11-21T01:19:17;95383.72;;;2.48;100.00
20624;BME280;10471;42.736;23.346;2023-11-21T01:21:43;95385.78;;;2.46;100.00
20624;BME280;10471;42.736;23.346;2023-11-21T01:24:08;95388.94;;;2.48;100.00
20624;BME280;10471;42.736;23.346;2023-11-21T01:26:34;95387.91;;;2.49;100.00
20624;BME280;10471;42.736;23.346;2023-11-21T01:28:59;95374.56;;;2.45;100.00
20624;BME280;10471;42.736;23.346;2023-11-21T01:31:25;95377.06;;;2.40;100.00
20624;BME280;10471;42.736;23.346;2023-11-21T01:33:54;95381.59;;;2.33;100.00
20624;BME280;10471;42.736;23.346;2023-11-21T01:36:20;95388.00;;;2.31;100.00
20624;BME280;10471;42.736;23.346;2023-11-21T01:38:46;95382.47;;;2.27;100.00
20624;BME280;10471;42.736;23.346;2023-11-21T01:41:14;95393.06;;;2.14;100.00
20624;BME280;10471;42.736;23.346;2023-11-21T01:43:40;95387.97;;;2.08;100.00
20624;BME280;10471;42.736;23.346;2023-11-21T01:46:06;95379.81;;;2.04;100.00
20624;BME280;10471;42.736;23.346;2023-11-21T01:48:32;95376.56;;;2.09;100.00
20624;BME280;10471;42.736;23.346;2023-11-21T01:50:58;95376.44;;;2.04;100.00
20624;BME280;10471;42.736;23.346;2023-11-21T01:53:25;95373.25;;;2.02;100.00
20624;BME280;10471;42.736;23.346;2023-11-21T01:55:51;95381.94;;;1.96;100.00
20624;BME280;10471;42.736;23.346;2023-11-21T01:58:19;95379.81;;;1.93;100.00
20624;BME280;10471;42.736;23.346;2023-11-21T02:00:44;95381.81;;;1.91;100.00
20624;BME280;10471;42.736;23.346;2023-11-21T02:03:10;95380.31;;;1.84;100.00
20624;BME280;10471;42.736;23.346;2023-11-21T02:05:36;95371.63;;;1.78;100.00
20624;BME280;10471;42.736;23.346;2023-11-21T02:08:02;95373.19;;;1.79;100.00
20624;BME280;10471;42.736;23.346;2023-11-21T02:10:28;95379.63;;;1.77;100.00
20624;BME280;10471;42.736;23.346;2023-11-21T02:12:54;95367.88;;;1.74;100.00
20624;BME280;10471;42.736;23.346;2023-11-21T02:15:21;95363.78;;;1.67;100.00
20624;BME280;10471;42.736;23.346;2023-11-21T02:17:48;95367.22;;;1.49;100.00
20624;BME280;10471;42.736;23.346;2023-11-21T02:20:18;95365.59;;;1.66;100.00
20624;BME280;10471;42.736;23.346;2023-11-21T02:22:50;95369.56;;;1.69;100.00
20624;BME280;10471;42.736;23.346;2023-11-21T02:25:26;95367.41;;;1.66;100.00
20624;BME280;10471;42.736;23.346;2023-11-21T02:27:56;95360.28;;;1.61;100.00
20624;BME280;10471;42.736;23.346;2023-11-21T02:30:22;95367.06;;;1.62;100.00
20624;BME280;10471;42.736;23.346;2023-11-21T02:32:48;95358.25;;;1.63;100.00
20624;BME280;10471;42.736;23.346;2023-11-21T02:35:14;95356.44;;;1.64;100.00
20624;BME280;10471;42.736;23.346;2023-11-21T02:37:41;95359.41;;;1.67;100.00
20624;BME280;10471;42.736;23.346;2023-11-21T02:40:09;95353.75;;;1.70;100.00
20624;BME280;10471;42.736;23.346;2023-11-21T02:42:35;95360.53;;;1.71;100.00
20624;BME280;10471;42.736;23.346;2023-11-21T02:45:00;95356.34;;;1.70;100.00
20624;BME280;10471;42.736;23.346;2023-11-21T02:47:26;95367.41;;;1.66;100.00
20624;BME280;10471;42.736;23.346;2023-11-21T02:49:51;95355.09;;;1.73;100.00
20624;BME280;10471;42.736;23.346;2023-11-21T02:52:18;95362.66;;;1.74;100.00
20624;BME280;10471;42.736;23.346;2023-11-21T02:54:44;95366.63;;;1.77;100.00
20624;BME280;10471;42.736;23.346;2023-11-21T02:57:10;95363.72;;;1.73;100.00
20624;BME280;10471;42.736;23.346;2023-11-21T02:59:35;95369.91;;;1.72;100.00
20624;BME280;10471;42.736;23.346;2023-11-21T03:02:00;95360.53;;;1.71;100.00
20624;BME280;10471;42.736;23.346;2023-11-21T03:04:26;95363.91;;;1.72;100.00
20624;BME280;10471;42.736;23.346;2023-11-21T03:06:51;95365.94;;;1.70;100.00
20624;BME280;10471;42.736;23.346;2023-11-21T03:09:17;95373.38;;;1.66;100.00
20624;BME280;10471;42.736;23.346;2023-11-21T03:11:42;95369.78;;;1.67;100.00
20624;BME280;10471;42.736;23.346;2023-11-21T03:14:08;95372.25;;;1.62;100.00
20624;BME280;10471;42.736;23.346;2023-11-21T03:16:33;95369.53;;;1.57;100.00
20624;BME280;10471;42.736;23.346;2023-11-21T03:18:58;95362.25;;;1.48;100.00
20624;BME280;10471;42.736;23.346;2023-11-21T03:21:24;95364.63;;;1.49;100.00
20624;BME280;10471;42.736;23.346;2023-11-21T03:23:51;95372.75;;;1.53;100.00
20624;BME280;10471;42.736;23.346;2023-11-21T03:26:17;95372.53;;;1.54;100.00
20624;BME280;10471;42.736;23.346;2023-11-21T03:28:43;95366.34;;;1.55;100.00
20624;BME280;10471;42.736;23.346;2023-11-21T03:31:08;95368.72;;;1.57;100.00
20624;BME280;10471;42.736;23.346;2023-11-21T03:33:36;95373.25;;;1.61;100.00
20624;BME280;10471;42.736;23.346;2023-11-21T03:36:02;95363.88;;;1.60;100.00
20624;BME280;10471;42.736;23.346;2023-11-21T03:38:29;95369.66;;;1.62;100.00
20624;BME280;10471;42.736;23.346;2023-11-21T03:40:54;95361.28;;;1.60;100.00
20624;BME280;10471;42.736;23.346;2023-11-21T03:43:19;95364.44;;;1.62;100.00
20624;BME280;10471;42.736;23.346;2023-11-21T03:45:45;95365.00;;;1.64;100.00
20624;BME280;10471;42.736;23.346;2023-11-21T03:48:12;95362.22;;;1.66;100.00
20624;BME280;10471;42.736;23.346;2023-11-21T03:50:38;95352.03;;;1.64;100.00
20624;BME280;10471;42.736;23.346;2023-11-21T03:53:04;95345.59;;;1.67;100.00
20624;BME280;10471;42.736;23.346;2023-11-21T03:55:29;95358.25;;;1.63;100.00
20624;BME280;10471;42.736;23.346;2023-11-21T03:57:56;95352.25;;;1.63;100.00
20624;BME280;10471;42.736;23.346;2023-11-21T04:00:22;95350.66;;;1.62;100.00
20624;BME280;10471;42.736;23.346;2023-11-21T04:02:47;95348.28;;;1.60;100.00
20624;BME280;10471;42.736;23.346;2023-11-21T04:05:13;95351.91;;;1.59;100.00
20624;BME280;10471;42.736;23.346;2023-11-21T04:07:38;95353.94;;;1.57;100.00
20624;BME280;10471;42.736;23.346;2023-11-21T04:10:05;95354.38;;;1.54;100.00
20624;BME280;10471;42.736;23.346;2023-11-21T04:12:33;95344.44;;;1.51;100.00
20624;BME280;10471;42.736;23.346;2023-11-21T04:14:59;95352.78;;;1.53;100.00
20624;BME280;10471;42.736;23.346;2023-11-21T04:17:24;95346.56;;;1.54;100.00
20624;BME280;10471;42.736;23.346;2023-11-21T04:19:49;95349.16;;;1.54;100.00
20624;BME280;10471;42.736;23.346;2023-11-21T04:22:15;95346.03;;;1.52;100.00
20624;BME280;10471;42.736;23.346;2023-11-21T04:24:40;95347.25;;;1.50;100.00
20624;BME280;10471;42.736;23.346;2023-11-21T04:27:06;95350.50;;;1.45;100.00
20624;BME280;10471;42.736;23.346;2023-11-21T04:29:31;95353.69;;;1.47;100.00
20624;BME280;10471;42.736;23.346;2023-11-21T04:31:56;95346.44;;;1.49;100.00
20624;BME280;10471;42.736;23.346;2023-11-21T04:34:22;95336.06;;;1.49;100.00
20624;BME280;10471;42.736;23.346;2023-11-21T04:36:47;95341.72;;;1.46;100.00
20624;BME280;10471;42.736;23.346;2023-11-21T04:39:12;95345.91;;;1.47;100.00
20624;BME280;10471;42.736;23.346;2023-11-21T04:41:38;95346.19;;;1.39;100.00
20624;BME280;10471;42.736;23.346;2023-11-21T04:44:05;95339.75;;;1.42;100.00
20624;BME280;10471;42.736;23.346;2023-11-21T04:46:31;95342.13;;;1.43;100.00
20624;BME280;10471;42.736;23.346;2023-11-21T04:48:57;95340.63;;;1.36;100.00
20624;BME280;10471;42.736;23.346;2023-11-21T04:51:23;95336.25;;;1.36;100.00
20624;BME280;10471;42.736;23.346;2023-11-21T04:53:48;95356.28;;;1.29;100.00
20624;BME280;10471;42.736;23.346;2023-11-21T04:56:14;95359.19;;;1.22;100.00
20624;BME280;10471;42.736;23.346;2023-11-21T04:58:41;95357.88;;;1.30;100.00
20624;BME280;10471;42.736;23.346;2023-11-21T05:01:09;95348.63;;;1.34;100.00
20624;BME280;10471;42.736;23.346;2023-11-21T05:03:35;95347.38;;;1.26;100.00
20624;BME280;10471;42.736;23.346;2023-11-21T05:06:00;95344.47;;;1.33;100.00
20624;BME280;10471;42.736;23.346;2023-11-21T05:08:26;95333.66;;;1.36;100.00
20624;BME280;10471;42.736;23.346;2023-11-21T05:10:52;95337.13;;;1.30;100.00
20624;BME280;10471;42.736;23.346;2023-11-21T05:13:19;95342.31;;;1.30;100.00
20624;BME280;10471;42.736;23.346;2023-11-21T05:15:45;95332.19;;;1.40;100.00
20624;BME280;10471;42.736;23.346;2023-11-21T05:18:10;95329.88;;;1.50;100.00
20624;BME280;10471;42.736;23.346;2023-11-21T05:20:36;95323.22;;;1.54;100.00
20624;BME280;10471;42.736;23.346;2023-11-21T05:23:03;95332.13;;;1.58;100.00
20624;BME280;10471;42.736;23.346;2023-11-21T05:25:28;95334.31;;;1.61;100.00
20624;BME280;10471;42.736;23.346;2023-11-21T05:27:54;95339.84;;;1.65;100.00
20624;BME280;10471;42.736;23.346;2023-11-21T05:30:26;95349.91;;;1.73;100.00
20624;BME280;10471;42.736;23.346;2023-11-21T05:32:52;95354.47;;;1.77;100.00
20624;BME280;10471;42.736;23.346;2023-11-21T05:35:17;95355.59;;;1.81;100.00
20624;BME280;10471;42.736;23.346;2023-11-21T05:37:43;95353.56;;;1.83;100.00
20624;BME280;10471;42.736;23.346;2023-11-21T05:40:09;95352.75;;;1.83;100.00
20624;BME280;10471;42.736;23.346;2023-11-21T05:42:35;95363.16;;;1.83;100.00
20624;BME280;10471;42.736;23.346;2023-11-21T05:45:01;95357.19;;;1.82;100.00
20624;BME280;10471;42.736;23.346;2023-11-21T05:47:43;95361.91;;;1.85;100.00
20624;BME280;10471;42.736;23.346;2023-11-21T05:50:12;95357.31;;;1.87;100.00
20624;BME280;10471;42.736;23.346;2023-11-21T05:52:40;95352.00;;;1.82;100.00
20624;BME280;10471;42.736;23.346;2023-11-21T05:55:06;95355.22;;;1.78;100.00
20624;BME280;10471;42.736;23.346;2023-11-21T05:57:36;95359.66;;;1.77;100.00
20624;BME280;10471;42.736;23.346;2023-11-21T06:00:10;95364.63;;;1.79;100.00
20624;BME280;10471;42.736;23.346;2023-11-21T06:02:38;95358.19;;;1.81;100.00
20624;BME280;10471;42.736;23.346;2023-11-21T06:05:04;95366.44;;;1.78;100.00
20624;BME280;10471;42.736;23.346;2023-11-21T06:07:29;95365.97;;;1.81;100.00
20624;BME280;10471;42.736;23.346;2023-11-21T06:09:55;95362.78;;;1.79;100.00
20624;BME280;10471;42.736;23.346;2023-11-21T06:12:21;95359.66;;;1.77;100.00
20624;BME280;10471;42.736;23.346;2023-11-21T06:14:46;95358.50;;;1.73;100.00
20624;BME280;10471;42.736;23.346;2023-11-21T06:17:13;95364.72;;;1.72;100.00
20624;BME280;10471;42.736;23.346;2023-11-21T06:19:38;95361.91;;;1.85;100.00
20624;BME280;10471;42.736;23.346;2023-11-21T06:22:05;95363.50;;;1.86;100.00
20624;BME280;10471;42.736;23.346;2023-11-21T06:24:31;95360.69;;;1.88;100.00
20624;BME280;10471;42.736;23.346;2023-11-21T06:26:57;95370.31;;;1.98;100.00
20624;BME280;10471;42.736;23.346;2023-11-21T06:29:22;95368.56;;;1.81;100.00
20624;BME280;10471;42.736;23.346;2023-11-21T06:31:47;95368.19;;;1.95;100.00
20624;BME280;10471;42.736;23.346;2023-11-21T06:34:13;95366.19;;;2.09;100.00
20624;BME280;10471;42.736;23.346;2023-11-21T06:36:39;95368.00;;;2.20;100.00
20624;BME280;10471;42.736;23.346;2023-11-21T06:39:04;95374.44;;;2.29;100.00
20624;BME280;10471;42.736;23.346;2023-11-21T06:41:33;95373.09;;;2.38;100.00
20624;BME280;10471;42.736;23.346;2023-11-21T06:43:59;95382.50;;;2.39;100.00
20624;BME280;10471;42.736;23.346;2023-11-21T06:46:24;95380.25;;;2.42;100.00
20624;BME280;10471;42.736;23.346;2023-11-21T06:48:49;95380.13;;;2.49;100.00
20624;BME280;10471;42.736;23.346;2023-11-21T06:51:16;95373.56;;;2.58;100.00
20624;BME280;10471;42.736;23.346;2023-11-21T06:53:41;95392.81;;;2.68;100.00
20624;BME280;10471;42.736;23.346;2023-11-21T06:56:19;95378.56;;;2.70;100.00
20624;BME280;10471;42.736;23.346;2023-11-21T06:58:45;95383.50;;;2.83;100.00
20624;BME280;10471;42.736;23.346;2023-11-21T07:01:12;95382.84;;;2.76;100.00
20624;BME280;10471;42.736;23.346;2023-11-21T07:03:38;95383.19;;;2.91;100.00
20624;BME280;10471;42.736;23.346;2023-11-21T07:06:04;95387.59;;;3.02;100.00
20624;BME280;10471;42.736;23.346;2023-11-21T07:08:29;95388.38;;;3.03;100.00
20624;BME280;10471;42.736;23.346;2023-11-21T07:10:55;95385.97;;;3.13;100.00
20624;BME280;10471;42.736;23.346;2023-11-21T07:13:20;95378.16;;;3.24;100.00
20624;BME280;10471;42.736;23.346;2023-11-21T07:15:46;95380.50;;;3.37;100.00
20624;BME280;10471;42.736;23.346;2023-11-21T07:18:12;95382.19;;;3.43;100.00
20624;BME280;10471;42.736;23.346;2023-11-21T07:20:38;95373.47;;;3.49;100.00
20624;BME280;10471;42.736;23.346;2023-11-21T07:23:03;95375.25;;;3.60;100.00
20624;BME280;10471;42.736;23.346;2023-11-21T07:25:29;95375.53;;;3.63;100.00
20624;BME280;10471;42.736;23.346;2023-11-21T07:27:54;95377.03;;;3.71;100.00
20624;BME280;10471;42.736;23.346;2023-11-21T07:30:20;95380.75;;;3.63;100.00
20624;BME280;10471;42.736;23.346;2023-11-21T07:32:47;95380.63;;;3.70;100.00
20624;BME280;10471;42.736;23.346;2023-11-21T07:35:13;95385.22;;;3.79;100.00
20624;BME280;10471;42.736;23.346;2023-11-21T07:37:39;95389.06;;;3.88;100.00
20624;BME280;10471;42.736;23.346;2023-11-21T07:40:05;95377.66;;;4.05;100.00
20624;BME280;10471;42.736;23.346;2023-11-21T07:42:31;95382.00;;;4.16;100.00
20624;BME280;10471;42.736;23.346;2023-11-21T07:44:56;95377.41;;;4.23;100.00
20624;BME280;10471;42.736;23.346;2023-11-21T07:47:21;95374.44;;;4.31;100.00
20624;BME280;10471;42.736;23.346;2023-11-21T07:49:47;95371.91;;;4.36;100.00
20624;BME280;10471;42.736;23.346;2023-11-21T07:52:13;95370.97;;;4.42;100.00
20624;BME280;10471;42.736;23.346;2023-11-21T07:54:41;95369.84;;;4.38;100.00
20624;BME280;10471;42.736;23.346;2023-11-21T07:57:07;95366.22;;;4.39;100.00
20624;BME280;10471;42.736;23.346;2023-11-21T07:59:32;95364.16;;;4.41;100.00
20624;BME280;10471;42.736;23.346;2023-11-21T08:01:58;95363.06;;;4.37;100.00
20624;BME280;10471;42.736;23.346;2023-11-21T08:04:23;95357.13;;;4.58;100.00
20624;BME280;10471;42.736;23.346;2023-11-21T08:06:48;95353.56;;;4.64;100.00
20624;BME280;10471;42.736;23.346;2023-11-21T08:09:14;95352.97;;;4.78;100.00
20624;BME280;10471;42.736;23.346;2023-11-21T08:11:42;95356.53;;;4.89;100.00
20624;BME280;10471;42.736;23.346;2023-11-21T08:14:07;95349.94;;;5.03;100.00
20624;BME280;10471;42.736;23.346;2023-11-21T08:16:33;95349.94;;;5.03;100.00
20624;BME280;10471;42.736;23.346;2023-11-21T08:18:58;95350.56;;;5.10;100.00
20624;BME280;10471;42.736;23.346;2023-11-21T08:21:24;95350.94;;;5.18;100.00
20624;BME280;10471;42.736;23.346;2023-11-21T08:23:50;95356.50;;;5.26;100.00
20624;BME280;10471;42.736;23.346;2023-11-21T08:26:19;95359.81;;;5.17;100.00
20624;BME280;10471;42.736;23.346;2023-11-21T08:28:45;95361.81;;;5.31;100.00
20624;BME280;10471;42.736;23.346;2023-11-21T08:31:12;95362.72;;;5.42;100.00
20624;BME280;10471;42.736;23.346;2023-11-21T08:33:38;95368.38;;;5.55;100.00
20624;BME280;10471;42.736;23.346;2023-11-21T08:36:07;95366.38;;;5.62;100.00
20624;BME280;10471;42.736;23.346;2023-11-21T08:38:32;95354.09;;;5.63;100.00
20624;BME280;10471;42.736;23.346;2023-11-21T08:40:58;95361.63;;;5.59;100.00
20624;BME280;10471;42.736;23.346;2023-11-21T08:43:25;95350.75;;;5.67;100.00
20624;BME280;10471;42.736;23.346;2023-11-21T08:45:52;95349.41;;;5.86;100.00
20624;BME280;10471;42.736;23.346;2023-11-21T08:48:18;95356.00;;;5.93;100.00
20624;BME280;10471;42.736;23.346;2023-11-21T08:50:43;95347.22;;;6.04;100.00
20624;BME280;10471;42.736;23.346;2023-11-21T08:53:08;95343.97;;;6.19;100.00
20624;BME280;10471;42.736;23.346;2023-11-21T08:55:36;95335.66;;;6.27;100.00
20624;BME280;10471;42.736;23.346;2023-11-21T08:58:02;95335.53;;;6.43;100.00
20624;BME280;10471;42.736;23.346;2023-11-21T09:00:30;95334.81;;;6.52;100.00
20624;BME280;10471;42.736;23.346;2023-11-21T09:02:56;95328.69;;;6.73;100.00
20624;BME280;10471;42.736;23.346;2023-11-21T09:05:22;95316.25;;;6.90;100.00
20624;BME280;10471;42.736;23.346;2023-11-21T09:07:47;95311.81;;;7.01;100.00
20624;BME280;10471;42.736;23.346;2023-11-21T09:10:14;95312.16;;;7.14;100.00
20624;BME280;10471;42.736;23.346;2023-11-21T09:12:40;95305.44;;;7.33;100.00
20624;BME280;10471;42.736;23.346;2023-11-21T09:15:06;95286.63;;;7.51;100.00
20624;BME280;10471;42.736;23.346;2023-11-21T09:17:33;95287.97;;;7.68;100.00
20624;BME280;10471;42.736;23.346;2023-11-21T09:20:02;95277.28;;;7.84;100.00
20624;BME280;10471;42.736;23.346;2023-11-21T09:22:32;95266.81;;;8.04;100.00
20624;BME280;10471;42.736;23.346;2023-11-21T09:24:57;95252.13;;;8.18;100.00
20624;BME280;10471;42.736;23.346;2023-11-21T09:27:23;95257.38;;;8.33;100.00
20624;BME280;10471;42.736;23.346;2023-11-21T09:29:49;95256.31;;;8.44;100.00
20624;BME280;10471;42.736;23.346;2023-11-21T09:32:14;95254.50;;;8.49;100.00
20624;BME280;10471;42.736;23.346;2023-11-21T09:34:44;95237.41;;;8.62;100.00
20624;BME280;10471;42.736;23.346;2023-11-21T09:37:09;95229.50;;;8.77;100.00
20624;BME280;10471;42.736;23.346;2023-11-21T09:39:35;95217.66;;;8.84;100.00
20624;BME280;10471;42.736;23.346;2023-11-21T09:42:20;95220.50;;;8.98;100.00
20624;BME280;10471;42.736;23.346;2023-11-21T09:47:24;95219.50;;;8.84;100.00
20624;BME280;10471;42.736;23.346;2023-11-21T09:49:49;95205.56;;;8.83;100.00
20624;BME280;10471;42.736;23.346;2023-11-21T09:52:20;95191.59;;;8.98;100.00
20624;BME280;10471;42.736;23.346;2023-11-21T09:54:47;95180.03;;;8.99;100.00
20624;BME280;10471;42.736;23.346;2023-11-21T09:57:14;95185.72;;;9.15;100.00
20624;BME280;10471;42.736;23.346;2023-11-21T09:59:40;95181.00;;;9.13;100.00
20624;BME280;10471;42.736;23.346;2023-11-21T10:02:07;95176.19;;;9.29;100.00
20624;BME280;10471;42.736;23.346;2023-11-21T10:04:37;95182.72;;;9.37;100.00
20624;BME280;10471;42.736;23.346;2023-11-21T10:07:04;95179.81;;;9.38;100.00
20624;BME280;10471;42.736;23.346;2023-11-21T10:09:35;95175.00;;;9.50;100.00
20624;BME280;10471;42.736;23.346;2023-11-21T10:12:03;95176.94;;;9.73;100.00
20624;BME280;10471;42.736;23.346;2023-11-21T10:14:34;95185.28;;;9.85;100.00
20624;BME280;10471;42.736;23.346;2023-11-21T10:17:00;95172.72;;;9.77;100.00
20624;BME280;10471;42.736;23.346;2023-11-21T10:19:26;95164.94;;;9.95;100.00
20624;BME280;10471;42.736;23.346;2023-11-21T10:21:52;95170.69;;;10.02;100.00
20624;BME280;10471;42.736;23.346;2023-11-21T10:24:19;95165.66;;;10.06;100.00
20624;BME280;10471;42.736;23.346;2023-11-21T10:26:45;95164.09;;;10.05;100.00
20624;BME280;10471;42.736;23.346;2023-11-21T10:29:14;95157.16;;;10.19;100.00
20624;BME280;10471;42.736;23.346;2023-11-21T10:31:42;95159.59;;;10.39;100.00
20624;BME280;10471;42.736;23.346;2023-11-21T10:34:18;95154.44;;;10.52;100.00
20624;BME280;10471;42.736;23.346;2023-11-21T10:36:44;95142.72;;;10.63;100.00
20624;BME280;10471;42.736;23.346;2023-11-21T10:39:14;95151.41;;;10.63;100.00
20624;BME280;10471;42.736;23.346;2023-11-21T10:41:46;95157.78;;;10.57;100.00
20624;BME280;10471;42.736;23.346;2023-11-21T10:44:18;95147.25;;;10.81;100.00
20624;BME280;10471;42.736;23.346;2023-11-21T10:46:52;95145.78;;;10.93;100.00
20624;BME280;10471;42.736;23.346;2023-11-21T10:49:21;95142.59;;;10.96;100.00
20624;BME280;10471;42.736;23.346;2023-11-21T10:51:47;95134.84;;;10.81;100.00
20624;BME280;10471;42.736;23.346;2023-11-21T10:54:24;95125.38;;;11.04;100.00
20624;BME280;10471;42.736;23.346;2023-11-21T10:56:59;95119.59;;;11.20;100.00
20624;BME280;10471;42.736;23.346;2023-11-21T10:59:28;95126.75;;;11.38;100.00
20624;BME280;10471;42.736;23.346;2023-11-21T11:01:54;95125.56;;;11.25;100.00
20624;BME280;10471;42.736;23.346;2023-11-21T11:04:22;95114.75;;;11.45;100.00
20624;BME280;10471;42.736;23.346;2023-11-21T11:07:02;95113.88;;;11.50;100.00
20624;BME280;10471;42.736;23.346;2023-11-21T11:09:30;95111.09;;;11.41;100.00
20624;BME280;10471;42.736;23.346;2023-11-21T11:11:57;95107.19;;;11.39;100.00
20624;BME280;10471;42.736;23.346;2023-11-21T11:14:24;95108.97;;;11.43;100.00
20624;BME280;10471;42.736;23.346;2023-11-21T11:16:54;95101.75;;;11.49;100.00
20624;BME280;10471;42.736;23.346;2023-11-21T11:19:20;95100.63;;;11.55;100.00
20624;BME280;10471;42.736;23.346;2023-11-21T11:38:22;95067.91;;;11.87;100.00
20624;BME280;10471;42.736;23.346;2023-11-21T11:40:53;95069.56;;;11.83;100.00
20624;BME280;10471;42.736;23.346;2023-11-21T11:43:28;95068.97;;;11.86;100.00
20624;BME280;10471;42.736;23.346;2023-11-21T11:45:57;95075.16;;;11.82;100.00
20624;BME280;10471;42.736;23.346;2023-11-21T11:48:24;95079.72;;;11.40;100.00
20624;BME280;10471;42.736;23.346;2023-11-21T11:51:12;95088.56;;;11.30;100.00
20624;BME280;10471;42.736;23.346;2023-11-21T11:53:42;95097.03;;;10.91;100.00
20624;BME280;10471;42.736;23.346;2023-11-21T11:56:30;95089.22;;;11.04;100.00
20624;BME280;10471;42.736;23.346;2023-11-21T11:58:58;95087.00;;;10.93;100.00
20624;BME280;10471;42.736;23.346;2023-11-21T12:01:26;95084.13;;;10.71;100.00
20624;BME280;10471;42.736;23.346;2023-11-21T12:07:00;95084.19;;;10.66;100.00
20624;BME280;10471;42.736;23.346;2023-11-21T12:09:28;95083.44;;;10.60;100.00
20624;BME280;10471;42.736;23.346;2023-11-21T12:11:55;95081.50;;;10.47;100.00
20624;BME280;10471;42.736;23.346;2023-11-21T12:14:22;95088.94;;;10.17;100.00
20624;BME280;10471;42.736;23.346;2023-11-21T12:16:48;95080.50;;;9.92;100.00
20624;BME280;10471;42.736;23.346;2023-11-21T12:19:14;95068.59;;;9.71;100.00
20624;BME280;10471;42.736;23.346;2023-11-21T12:21:40;95059.78;;;9.52;100.00
20624;BME280;10471;42.736;23.346;2023-11-21T12:24:14;95057.28;;;9.37;100.00
20624;BME280;10471;42.736;23.346;2023-11-21T12:26:40;95050.44;;;9.36;100.00
20624;BME280;10471;42.736;23.346;2023-11-21T12:29:05;95053.09;;;9.31;100.00
20624;BME280;10471;42.736;23.346;2023-11-21T12:31:33;95039.00;;;9.22;100.00
20624;BME280;10471;42.736;23.346;2023-11-21T12:33:59;95044.56;;;9.16;100.00
20624;BME280;10471;42.736;23.346;2023-11-21T12:36:25;95056.41;;;9.13;100.00
20624;BME280;10471;42.736;23.346;2023-11-21T12:38:51;95042.22;;;9.14;100.00
20624;BME280;10471;42.736;23.346;2023-11-21T12:41:16;95046.31;;;8.87;100.00
20624;BME280;10471;42.736;23.346;2023-11-21T12:43:42;95041.31;;;8.91;100.00
20624;BME280;10471;42.736;23.346;2023-11-21T12:46:09;95030.34;;;8.84;100.00
20624;BME280;10471;42.736;23.346;2023-11-21T12:48:39;95012.38;;;8.96;100.00
20624;BME280;10471;42.736;23.346;2023-11-21T12:51:06;95015.28;;;8.94;100.00
20624;BME280;10471;42.736;23.346;2023-11-21T12:53:32;95015.72;;;9.06;100.00
20624;BME280;10471;42.736;23.346;2023-11-21T12:56:06;95020.16;;;9.11;100.00
20624;BME280;10471;42.736;23.346;2023-11-21T12:58:31;95015.94;;;9.14;100.00
20624;BME280;10471;42.736;23.346;2023-11-21T13:00:59;95005.91;;;9.16;100.00
20624;BME280;10471;42.736;23.346;2023-11-21T13:03:25;95007.22;;;9.19;100.00
20624;BME280;10471;42.736;23.346;2023-11-21T13:05:53;94994.78;;;9.29;100.00
20624;BME280;10471;42.736;23.346;2023-11-21T13:08:23;94985.94;;;9.44;100.00
20624;BME280;10471;42.736;23.346;2023-11-21T13:10:54;95001.09;;;9.28;100.00